Time;durP1;ratioP1;P1;durP2;ratioP2;P2;SDS_P1;SDS_P2;PMS_P1;PMS_P2;Temp;Humidity;BMP_temperature;BMP_pressure;BME280_temperature;BME280_humidity;BME280_pressure;Samples;Min_cycle;Max_cycle;Signal;HPM_P1;HPM_P2
2022/02/13 00:00:56;;;;;;;10.70;7.30;;;2.10;67.70;;;;;;6274500;28;20479;-66
2022/02/13 00:04:00;;;;;;;9.60;7.33;;;2.10;68.30;;;;;;6274086;28;20938;-64
2022/02/13 00:07:04;;;;;;;7.23;6.17;;;2.00;68.70;;;;;;6271119;28;20470;-64
2022/02/13 00:10:10;;;;;;;6.90;6.27;;;2.00;68.90;;;;;;6276746;28;20482;-64
2022/02/13 00:13:13;;;;;;;10.30;6.40;;;2.00;69.20;;;;;;6273882;28;20471;-64
2022/02/13 00:16:16;;;;;;;6.77;6.10;;;2.00;69.30;;;;;;6273992;28;20799;-63
2022/02/13 00:19:21;;;;;;;7.60;6.80;;;2.00;69.30;;;;;;6274195;28;20478;-64
2022/02/13 00:22:26;;;;;;;7.77;7.00;;;1.90;69.50;;;;;;6273214;28;20506;-62
2022/02/13 00:25:29;;;;;;;8.30;7.50;;;1.90;69.90;;;;;;6273977;28;20946;-64
2022/02/13 00:28:36;;;;;;;9.00;6.70;;;1.90;70.10;;;;;;6274257;28;20478;-64
2022/02/13 00:31:39;;;;;;;8.40;7.70;;;1.90;70.10;;;;;;6272612;28;20486;-63
2022/02/13 00:34:44;;;;;;;9.23;7.80;;;1.90;70.60;;;;;;6266832;28;20477;-62
2022/02/13 00:37:47;;;;;;;11.37;7.87;;;1.80;70.50;;;;;;6270633;28;20935;-64
2022/02/13 00:40:51;;;;;;;8.87;7.37;;;1.80;70.70;;;;;;6273810;28;20585;-62
2022/02/13 00:43:55;;;;;;;7.50;6.63;;;1.70;70.80;;;;;;6266443;28;20492;-62
2022/02/13 00:46:58;;;;;;;8.60;7.47;;;1.70;72.10;;;;;;6266602;28;20917;-62
2022/02/13 00:50:02;;;;;;;8.27;6.40;;;1.70;74.60;;;;;;6264328;28;20474;-62
2022/02/13 00:53:07;;;;;;;7.20;6.60;;;1.70;75.20;;;;;;6264373;28;20562;-61
2022/02/13 00:56:10;;;;;;;9.17;6.33;;;1.70;75.30;;;;;;6272305;28;20848;-61
2022/02/13 00:59:13;;;;;;;5.73;4.57;;;1.60;75.40;;;;;;6268380;28;20468;-62
2022/02/13 01:02:17;;;;;;;12.57;5.83;;;1.70;74.90;;;;;;6253526;28;20501;-62
2022/02/13 01:05:21;;;;;;;6.57;5.83;;;1.70;74.40;;;;;;6253314;28;20971;-62
2022/02/13 01:08:24;;;;;;;6.00;5.50;;;1.70;74.30;;;;;;6253365;28;20479;-63
2022/02/13 01:11:27;;;;;;;6.47;5.87;;;1.70;74.30;;;;;;6248178;28;20787;-62
2022/02/13 01:14:30;;;;;;;10.63;5.73;;;1.60;74.10;;;;;;6254181;28;20529;-63
2022/02/13 01:17:34;;;;;;;5.77;5.03;;;1.60;74.10;;;;;;6254110;28;20538;-63
2022/02/13 01:20:38;;;;;;;11.63;5.70;;;1.60;74.40;;;;;;6254517;28;20475;-64
2022/02/13 01:23:42;;;;;;;9.70;6.30;;;1.60;74.40;;;;;;6252964;28;20971;-62
2022/02/13 01:26:45;;;;;;;8.50;6.77;;;1.40;74.40;;;;;;6253025;28;20975;-62
2022/02/13 01:29:48;;;;;;;7.43;6.33;;;1.40;74.90;;;;;;6253347;28;20554;-63
2022/02/13 01:32:52;;;;;;;7.90;6.93;;;1.40;75.40;;;;;;6252907;28;20864;-63
2022/02/13 01:35:56;;;;;;;8.57;6.53;;;1.40;75.90;;;;;;6252894;28;20486;-63
2022/02/13 01:39:00;;;;;;;9.83;6.70;;;1.40;75.80;;;;;;6252705;28;20480;-62
2022/02/13 01:42:03;;;;;;;9.97;7.63;;;1.40;75.70;;;;;;6252195;28;20484;-62
2022/02/13 01:45:07;;;;;;;11.17;6.07;;;1.30;75.90;;;;;;6251753;28;20975;-62
2022/02/13 01:48:12;;;;;;;8.30;6.50;;;1.20;76.60;;;;;;6252464;28;20472;-62
2022/02/13 01:51:17;;;;;;;8.70;6.57;;;1.20;77.20;;;;;;6254399;28;20479;-63
2022/02/13 01:54:23;;;;;;;7.90;6.30;;;1.10;77.10;;;;;;6254227;28;20494;-63
2022/02/13 01:57:27;;;;;;;7.70;5.60;;;1.20;77.20;;;;;;6255144;28;20509;-63
2022/02/13 02:00:30;;;;;;;10.43;5.90;;;1.20;77.20;;;;;;6252518;28;20475;-63
2022/02/13 02:03:33;;;;;;;7.93;6.57;;;1.20;77.20;;;;;;6254606;28;20538;-63
2022/02/13 02:06:38;;;;;;;11.13;7.23;;;1.10;77.30;;;;;;6252471;28;20458;-63
2022/02/13 02:09:45;;;;;;;6.77;5.87;;;1.10;77.80;;;;;;6251948;28;20482;-62
2022/02/13 02:12:49;;;;;;;9.90;7.17;;;1.00;77.60;;;;;;6254382;28;20487;-64
2022/02/13 02:15:52;;;;;;;8.60;5.87;;;0.90;78.40;;;;;;6253255;28;20829;-63
2022/02/13 02:18:55;;;;;;;7.87;6.30;;;0.90;78.90;;;;;;6251437;28;20926;-63
2022/02/13 02:21:59;;;;;;;8.40;5.53;;;0.90;79.40;;;;;;6251763;28;20782;-63
2022/02/13 02:25:05;;;;;;;8.83;5.43;;;0.90;79.50;;;;;;6252453;28;20541;-63
2022/02/13 02:28:08;;;;;;;5.67;5.10;;;0.90;79.70;;;;;;6252585;28;20533;-64
2022/02/13 02:31:11;;;;;;;5.50;4.83;;;0.90;80.00;;;;;;6252283;28;20471;-63
2022/02/13 02:34:15;;;;;;;6.47;5.20;;;0.90;80.20;;;;;;6253627;28;20467;-63
2022/02/13 02:37:18;;;;;;;9.90;6.00;;;0.80;80.20;;;;;;6251242;28;20492;-62
2022/02/13 02:40:22;;;;;;;9.20;5.87;;;0.80;80.10;;;;;;6251283;28;20491;-63
2022/02/13 02:43:25;;;;;;;9.20;5.57;;;0.80;80.20;;;;;;6251988;28;20844;-63
2022/02/13 02:46:28;;;;;;;7.53;5.50;;;0.70;80.60;;;;;;6253066;28;20475;-62
2022/02/13 02:49:32;;;;;;;6.37;5.80;;;0.80;81.10;;;;;;6252635;28;20467;-63
2022/02/13 02:52:35;;;;;;;7.57;5.87;;;0.70;81.40;;;;;;6253876;28;20471;-63
2022/02/13 02:55:40;;;;;;;5.60;5.03;;;0.80;81.40;;;;;;6250610;28;20971;-62
2022/02/13 02:58:43;;;;;;;5.23;4.73;;;0.80;81.10;;;;;;6251898;28;20574;-63
2022/02/13 03:01:46;;;;;;;6.63;5.30;;;0.80;80.90;;;;;;6252082;28;20479;-62
2022/02/13 03:04:49;;;;;;;5.60;5.00;;;0.70;81.20;;;;;;6250774;28;20769;-62
2022/02/13 03:07:53;;;;;;;5.63;5.13;;;0.70;81.30;;;;;;6252519;28;20529;-64
2022/02/13 03:10:57;;;;;;;5.60;4.97;;;0.80;81.30;;;;;;6251182;28;20789;-63
2022/02/13 03:14:03;;;;;;;6.33;5.60;;;0.70;81.00;;;;;;6250656;28;20983;-63
2022/02/13 03:17:06;;;;;;;9.90;6.70;;;0.70;81.40;;;;;;6253716;28;20777;-65
2022/02/13 03:20:11;;;;;;;9.67;8.13;;;0.70;81.80;;;;;;6242120;28;20490;-63
2022/02/13 03:23:15;;;;;;;8.57;6.73;;;0.70;81.80;;;;;;6251765;28;20480;-64
2022/02/13 03:26:23;;;;;;;15.70;10.77;;;0.60;81.60;;;;;;6256332;28;20478;-64
2022/02/13 03:29:26;;;;;;;10.67;8.43;;;0.50;81.90;;;;;;6252056;28;20955;-64
2022/02/13 03:32:29;;;;;;;7.77;7.00;;;0.40;82.10;;;;;;6250510;28;20794;-63
2022/02/13 03:35:33;;;;;;;12.70;6.70;;;0.30;83.10;;;;;;6250251;28;20483;-63
2022/02/13 03:38:36;;;;;;;8.60;6.67;;;0.30;83.90;;;;;;6250327;28;20463;-62
2022/02/13 03:41:40;;;;;;;7.63;6.73;;;0.30;84.40;;;;;;6250087;28;20802;-62
2022/02/13 03:44:43;;;;;;;10.93;7.57;;;0.30;84.50;;;;;;6249972;28;20467;-61
2022/02/13 03:47:46;;;;;;;7.33;6.67;;;0.40;84.50;;;;;;6250165;28;20479;-61
2022/02/13 03:50:49;;;;;;;8.00;6.33;;;0.40;84.30;;;;;;6250055;28;21006;-60
2022/02/13 03:53:52;;;;;;;6.87;5.97;;;0.30;84.00;;;;;;6249736;28;20489;-61
2022/02/13 03:56:57;;;;;;;7.73;5.87;;;0.30;84.00;;;;;;6250009;28;20782;-60
2022/02/13 04:00:00;;;;;;;5.30;4.90;;;0.30;84.10;;;;;;6249777;28;20899;-61
2022/02/13 04:03:03;;;;;;;6.57;4.97;;;0.30;84.30;;;;;;6249610;28;20990;-62
2022/02/13 04:06:06;;;;;;;5.77;5.27;;;0.30;84.60;;;;;;6250095;28;20971;-60
2022/02/13 04:09:10;;;;;;;7.07;4.33;;;0.30;84.70;;;;;;6252102;28;20931;-60
2022/02/13 04:12:14;;;;;;;5.10;4.60;;;0.40;85.00;;;;;;6254908;28;20994;-60
2022/02/13 04:15:17;;;;;;;5.57;4.83;;;0.30;84.70;;;;;;6254781;28;20479;-61
2022/02/13 04:18:20;;;;;;;11.40;3.93;;;0.30;84.70;;;;;;6255124;28;20495;-61
2022/02/13 04:21:23;;;;;;;5.83;3.67;;;0.30;84.70;;;;;;6254198;28;20471;-61
2022/02/13 04:24:26;;;;;;;4.57;3.77;;;0.30;84.60;;;;;;6249826;28;20484;-61
2022/02/13 04:27:31;;;;;;;4.93;4.43;;;0.30;85.00;;;;;;6254620;28;20971;-63
2022/02/13 04:30:34;;;;;;;8.53;4.87;;;0.30;85.10;;;;;;6254384;28;20900;-62
2022/02/13 04:33:37;;;;;;;5.87;4.67;;;0.20;85.00;;;;;;6279208;28;20466;-62
2022/02/13 04:36:40;;;;;;;5.97;4.63;;;0.20;85.60;;;;;;6279424;28;20992;-62
2022/02/13 04:39:43;;;;;;;5.70;5.20;;;0.10;85.70;;;;;;6279424;28;20455;-62
2022/02/13 04:42:48;;;;;;;4.90;3.80;;;0.10;86.10;;;;;;6279246;28;20466;-62
2022/02/13 04:45:51;;;;;;;5.10;4.37;;;0.00;86.10;;;;;;6279492;28;20940;-63
2022/02/13 04:48:54;;;;;;;5.47;4.10;;;0.00;86.50;;;;;;6279925;28;20976;-63
2022/02/13 04:51:57;;;;;;;4.40;4.00;;;0.00;86.90;;;;;;6280335;28;20466;-63
2022/02/13 04:55:03;;;;;;;8.17;4.10;;;0.00;87.40;;;;;;6280363;28;20545;-63
2022/02/13 04:58:07;;;;;;;4.97;4.47;;;0.10;87.70;;;;;;6262626;28;20485;-62
2022/02/13 05:01:10;;;;;;;6.60;4.90;;;0.10;87.60;;;;;;6278657;28;20984;-62
2022/02/13 05:04:13;;;;;;;5.37;4.83;;;0.00;87.50;;;;;;6278229;28;20493;-62
2022/02/13 05:07:16;;;;;;;4.50;4.10;;;0.10;87.70;;;;;;6278313;28;20946;-61
2022/02/13 05:10:20;;;;;;;5.03;4.53;;;0.00;87.50;;;;;;6278299;28;20541;-61
2022/02/13 05:13:28;;;;;;;5.50;4.10;;;0.00;87.60;;;;;;6277752;28;20985;-62
2022/02/13 05:16:31;;;;;;;4.73;4.33;;;0.00;87.70;;;;;;6279655;28;21000;-63
2022/02/13 05:19:34;;;;;;;7.90;4.47;;;0.00;87.60;;;;;;6278284;28;20478;-63
2022/02/13 05:22:37;;;;;;;5.37;4.77;;;0.00;87.30;;;;;;6278367;28;20485;-62
2022/02/13 05:25:40;;;;;;;5.00;4.47;;;0.00;87.30;;;;;;6277528;28;20988;-62
2022/02/13 05:28:45;;;;;;;5.47;4.63;;;-0.10;87.30;;;;;;6278749;28;20489;-62
2022/02/13 05:31:48;;;;;;;4.73;4.27;;;0.00;87.30;;;;;;6279349;28;20475;-62
2022/02/13 05:34:51;;;;;;;6.87;4.87;;;-0.10;87.20;;;;;;6277513;28;20786;-61
2022/02/13 05:37:54;;;;;;;5.77;4.20;;;-0.10;87.30;;;;;;6277849;28;20536;-62
2022/02/13 05:40:58;;;;;;;5.93;4.23;;;-0.10;87.30;;;;;;6277404;28;20825;-63
2022/02/13 05:44:02;;;;;;;4.90;4.43;;;-0.20;87.40;;;;;;6277411;28;21069;-61
2022/02/13 05:47:06;;;;;;;5.70;4.53;;;-0.20;87.50;;;;;;6277623;28;20470;-62
2022/02/13 05:50:10;;;;;;;5.47;5.07;;;-0.20;87.70;;;;;;6277176;28;20967;-61
2022/02/13 05:53:13;;;;;;;5.20;4.70;;;-0.30;88.30;;;;;;6277108;28;20475;-62
2022/02/13 05:56:16;;;;;;;5.70;5.07;;;-0.30;88.80;;;;;;6276925;28;20474;-61
2022/02/13 05:59:24;;;;;;;6.00;5.03;;;-0.30;88.90;;;;;;6277453;28;20481;-61
2022/02/13 06:02:27;;;;;;;5.03;4.60;;;-0.20;89.70;;;;;;6277262;28;20489;-63
2022/02/13 06:05:30;;;;;;;5.53;5.03;;;-0.20;88.80;;;;;;6276937;28;20474;-63
2022/02/13 06:08:33;;;;;;;5.47;4.40;;;-0.30;89.20;;;;;;6280005;28;20474;-63
2022/02/13 06:11:37;;;;;;;5.80;5.07;;;-0.30;89.30;;;;;;6279906;28;20490;-62
2022/02/13 06:14:41;;;;;;;5.50;4.90;;;-0.30;89.30;;;;;;6276480;28;20505;-62
2022/02/13 06:17:44;;;;;;;6.20;4.87;;;-0.30;89.40;;;;;;6276234;28;20863;-62
2022/02/13 06:20:48;;;;;;;6.50;5.10;;;-0.30;89.50;;;;;;6277051;28;20471;-62
2022/02/13 06:23:51;;;;;;;7.00;4.80;;;-0.20;89.70;;;;;;6278719;28;20490;-63
2022/02/13 06:26:54;;;;;;;6.20;5.60;;;-0.20;90.20;;;;;;6279367;28;20485;-63
2022/02/13 06:29:58;;;;;;;8.00;5.90;;;-0.20;90.10;;;;;;6277475;28;20482;-61
2022/02/13 06:33:03;;;;;;;5.60;5.10;;;-0.10;89.60;;;;;;6275930;28;20470;-62
2022/02/13 06:36:06;;;;;;;9.07;5.03;;;-0.10;89.40;;;;;;6276018;28;20487;-61
2022/02/13 06:39:09;;;;;;;7.43;5.70;;;-0.10;89.40;;;;;;6275903;28;20470;-61
2022/02/13 06:42:13;;;;;;;6.13;5.20;;;0.00;89.40;;;;;;6276432;28;20474;-61
2022/02/13 06:45:17;;;;;;;7.20;6.13;;;0.00;89.30;;;;;;6275843;28;20474;-62
2022/02/13 06:48:20;;;;;;;6.93;5.33;;;0.00;89.50;;;;;;6277111;28;20467;-62
2022/02/13 06:51:23;;;;;;;5.90;5.30;;;0.00;89.20;;;;;;6282130;28;20489;-63
2022/02/13 06:54:26;;;;;;;5.90;5.37;;;0.00;89.20;;;;;;6278678;28;20478;-63
2022/02/13 06:57:29;;;;;;;5.33;4.83;;;0.10;89.10;;;;;;6276222;28;20935;-63
2022/02/13 07:00:34;;;;;;;6.87;5.10;;;0.10;88.90;;;;;;6276712;28;20474;-63
2022/02/13 07:03:39;;;;;;;5.23;4.73;;;0.20;88.90;;;;;;6275520;28;20485;-62
2022/02/13 07:06:42;;;;;;;7.00;5.20;;;0.20;89.20;;;;;;6275878;28;20447;-63
2022/02/13 07:09:45;;;;;;;5.97;5.10;;;0.30;89.20;;;;;;6275356;28;20442;-64
2022/02/13 07:12:48;;;;;;;5.80;5.20;;;0.30;89.00;;;;;;6275160;28;20541;-61
2022/02/13 07:15:53;;;;;;;18.70;5.10;;;0.30;88.90;;;;;;6275730;28;20482;-61
2022/02/13 07:18:56;;;;;;;7.73;5.50;;;0.40;89.30;;;;;;6275671;28;20520;-61
2022/02/13 07:21:59;;;;;;;12.23;5.53;;;0.50;89.20;;;;;;6275954;28;20477;-63
2022/02/13 07:25:06;;;;;;;5.63;5.17;;;0.60;89.20;;;;;;6276121;28;20520;-63
2022/02/13 07:31:27;;;;;;;6.30;5.20;;;0.80;89.20;;;;;;6274820;28;20962;-62
2022/02/13 07:34:30;;;;;;;6.77;5.80;;;0.90;88.80;;;;;;6271525;28;20477;-62
2022/02/13 07:37:33;;;;;;;6.90;6.20;;;0.90;88.70;;;;;;6275519;28;20482;-62
2022/02/13 07:40:36;;;;;;;9.50;5.80;;;1.10;88.60;;;;;;6274724;28;20483;-62
2022/02/13 07:43:40;;;;;;;8.43;6.43;;;1.20;88.40;;;;;;6274143;28;20973;-62
2022/02/13 07:46:44;;;;;;;6.40;5.60;;;1.20;88.00;;;;;;6274438;28;20984;-62
2022/02/13 07:49:47;;;;;;;16.43;5.90;;;1.40;87.60;;;;;;6274824;28;20481;-62
2022/02/13 07:52:50;;;;;;;6.33;5.73;;;1.40;87.50;;;;;;6274765;28;20775;-62
2022/02/13 07:55:53;;;;;;;8.17;5.00;;;1.50;87.10;;;;;;6274601;28;20544;-63
2022/02/13 07:58:57;;;;;;;7.93;5.50;;;1.60;87.10;;;;;;6277278;28;20470;-62
2022/02/13 08:02:02;;;;;;;8.60;5.97;;;1.70;86.50;;;;;;6274653;28;20551;-63
2022/02/13 08:05:06;;;;;;;9.00;5.53;;;1.80;85.90;;;;;;6275102;28;20478;-62
2022/02/13 08:08:09;;;;;;;6.77;5.70;;;1.90;85.70;;;;;;6274588;28;20471;-62
2022/02/13 08:11:13;;;;;;;7.20;6.47;;;2.00;86.10;;;;;;6275068;28;20467;-62
2022/02/13 08:14:17;;;;;;;10.57;5.70;;;2.10;85.80;;;;;;6275737;28;20501;-64
2022/02/13 08:17:22;;;;;;;7.17;6.13;;;2.20;85.40;;;;;;6276231;28;20470;-63
2022/02/13 08:20:25;;;;;;;6.57;5.73;;;2.30;84.90;;;;;;6274810;28;20477;-62
2022/02/13 08:23:28;;;;;;;10.97;5.77;;;2.40;84.50;;;;;;6274333;28;20482;-62
2022/02/13 08:26:31;;;;;;;8.50;6.27;;;2.40;83.60;;;;;;6274911;28;20470;-61
2022/02/13 08:29:35;;;;;;;4.60;4.20;;;2.40;83.50;;;;;;6275013;28;20486;-63
2022/02/13 08:32:39;;;;;;;5.00;4.60;;;2.50;83.30;;;;;;6274312;28;20483;-62
2022/02/13 08:35:42;;;;;;;7.23;5.27;;;2.60;82.30;;;;;;6274756;28;20470;-62
2022/02/13 08:38:45;;;;;;;6.63;5.57;;;2.70;81.30;;;;;;6274384;28;20481;-63
2022/02/13 08:41:51;;;;;;;12.63;8.37;;;2.80;81.30;;;;;;6274668;28;20482;-63
2022/02/13 08:44:54;;;;;;;9.83;7.90;;;2.90;81.70;;;;;;6275041;28;20548;-63
2022/02/13 08:47:59;;;;;;;10.87;8.53;;;3.00;81.80;;;;;;6274760;28;20473;-62
2022/02/13 08:51:02;;;;;;;16.47;9.23;;;3.10;81.20;;;;;;6275085;28;20474;-62
2022/02/13 08:54:05;;;;;;;9.40;7.40;;;3.20;81.30;;;;;;6274441;28;20474;-61
2022/02/13 08:57:08;;;;;;;11.97;10.67;;;3.30;81.40;;;;;;6278858;28;20485;-63
2022/02/13 09:00:12;;;;;;;11.27;9.33;;;3.50;81.00;;;;;;6278294;28;20473;-62
2022/02/13 09:03:17;;;;;;;10.00;9.00;;;3.70;80.30;;;;;;6277992;28;20485;-62
2022/02/13 09:06:20;;;;;;;13.17;8.40;;;3.80;79.80;;;;;;6277918;28;20477;-61
2022/02/13 09:09:24;;;;;;;17.27;9.30;;;4.00;78.30;;;;;;6278363;28;20540;-61
2022/02/13 09:12:29;;;;;;;11.83;8.20;;;4.20;78.30;;;;;;6277605;28;20497;-62
2022/02/13 09:15:32;;;;;;;9.83;7.70;;;4.70;77.00;;;;;;6277710;28;20784;-61
2022/02/13 09:18:37;;;;;;;10.93;7.67;;;6.40;74.00;;;;;;6301909;28;20466;-62
2022/02/13 09:21:40;;;;;;;10.50;8.73;;;10.30;61.90;;;;;;6301753;28;20461;-62
2022/02/13 09:24:43;;;;;;;8.87;7.93;;;14.90;49.10;;;;;;6299671;28;20440;-62
2022/02/13 09:27:46;;;;;;;10.63;7.13;;;18.50;37.70;;;;;;6302360;28;20449;-62
2022/02/13 09:30:50;;;;;;;10.50;7.57;;;22.10;31.70;;;;;;6302643;28;20445;-62
2022/02/13 09:33:59;;;;;;;10.90;8.87;;;24.80;27.00;;;;;;6301059;28;20269;-62
2022/02/13 09:37:03;;;;;;;7.00;6.40;;;27.00;24.40;;;;;;6302032;28;20231;-63
2022/02/13 09:40:07;;;;;;;8.10;7.10;;;26.50;21.90;;;;;;6302300;28;20235;-63
2022/02/13 09:43:10;;;;;;;7.90;7.20;;;23.90;22.60;;;;;;6294207;28;20597;-62
2022/02/13 09:46:14;;;;;;;8.17;7.40;;;21.00;24.30;;;;;;6299726;28;20231;-63
2022/02/13 09:49:19;;;;;;;7.40;6.70;;;18.40;26.20;;;;;;6301182;28;20241;-62
2022/02/13 09:52:23;;;;;;;11.60;7.30;;;16.30;28.50;;;;;;6302268;28;20473;-62
2022/02/13 09:55:27;;;;;;;7.77;7.07;;;16.00;30.20;;;;;;6301727;28;20472;-62
2022/02/13 09:58:30;;;;;;;8.40;7.20;;;19.10;28.50;;;;;;6301791;28;20231;-64
2022/02/13 10:01:37;;;;;;;6.63;6.03;;;23.10;25.70;;;;;;6301784;28;20226;-63
2022/02/13 10:04:45;;;;;;;8.00;7.30;;;26.70;22.90;;;;;;6301699;28;20226;-63
2022/02/13 10:07:52;;;;;;;8.27;7.50;;;29.10;20.80;;;;;;6301403;28;20712;-65
2022/02/13 10:11:15;;;;;;;7.40;6.23;;;31.20;19.30;;;;;;6303268;28;20241;-63
2022/02/13 10:14:30;;;;;;;6.55;5.93;;;33.10;17.20;;;;;;6303661;28;20655;-64
2022/02/13 10:17:33;;;;;;;7.30;6.70;;;34.00;16.00;;;;;;6310441;28;20242;-63
2022/02/13 10:20:39;;;;;;;6.30;5.70;;;35.50;15.40;;;;;;6305323;28;20230;-63
2022/02/13 10:23:43;;;;;;;7.15;6.55;;;35.60;14.40;;;;;;6302044;28;20238;-63
2022/02/13 10:26:47;;;;;;;6.88;6.38;;;36.20;14.10;;;;;;6301473;28;20236;-64
2022/02/13 10:29:55;;;;;;;7.10;6.50;;;36.70;13.80;;;;;;6302675;28;20234;-65
2022/02/13 10:33:14;;;;;;;5.90;5.40;;;37.00;13.40;;;;;;6303186;28;20675;-65
2022/02/13 10:36:19;;;;;;;6.20;5.75;;;37.00;13.00;;;;;;6302358;28;20660;-65
2022/02/13 10:39:24;;;;;;;6.80;6.20;;;36.30;13.30;;;;;;6301663;28;20233;-65
2022/02/13 10:42:28;;;;;;;6.82;6.30;;;36.20;13.40;;;;;;6301618;28;20242;-64
2022/02/13 10:45:32;;;;;;;6.32;5.78;;;37.10;13.00;;;;;;6302392;28;20226;-65
2022/02/13 10:48:35;;;;;;;6.47;5.85;;;37.60;12.70;;;;;;6297686;28;20234;-64
2022/02/13 10:51:40;;;;;;;6.70;6.10;;;38.10;12.50;;;;;;6300451;28;20587;-63
2022/02/13 10:54:44;;;;;;;6.78;6.18;;;38.30;12.20;;;;;;6300760;28;20211;-63
2022/02/13 10:57:48;;;;;;;6.15;5.65;;;38.30;12.40;;;;;;6300475;28;20525;-63
2022/02/13 11:00:55;;;;;;;5.65;5.25;;;38.10;12.20;;;;;;6300845;28;20206;-64
2022/02/13 11:04:03;;;;;;;5.43;5.00;;;38.40;12.20;;;;;;6300723;28;20234;-64
2022/02/13 11:07:09;;;;;;;5.35;4.95;;;38.70;11.80;;;;;;6300476;28;20311;-64
2022/02/13 11:10:18;;;;;;;5.75;4.40;;;38.30;11.60;;;;;;6300107;28;20234;-64
2022/02/13 11:13:25;;;;;;;4.90;4.50;;;38.40;11.50;;;;;;6300084;28;20231;-64
2022/02/13 11:16:31;;;;;;;4.95;4.55;;;36.90;11.70;;;;;;6300320;28;20234;-65
2022/02/13 11:19:38;;;;;;;4.93;4.35;;;37.50;11.70;;;;;;6299695;28;20237;-64
2022/02/13 11:22:45;;;;;;;4.93;4.53;;;38.60;11.40;;;;;;6299817;28;20656;-64
2022/02/13 11:25:52;;;;;;;5.75;5.07;;;37.80;11.80;;;;;;6300180;28;20241;-64
2022/02/13 11:28:56;;;;;;;4.97;4.57;;;38.30;11.50;;;;;;6299524;28;20234;-65
2022/02/13 11:32:02;;;;;;;5.15;4.70;;;37.50;11.70;;;;;;6300133;28;20241;-64
2022/02/13 11:35:07;;;;;;;4.40;4.10;;;38.30;11.40;;;;;;6299529;28;20231;-65
2022/02/13 11:38:11;;;;;;;4.28;3.90;;;38.20;11.20;;;;;;6299684;28;20692;-63
2022/02/13 11:41:16;;;;;;;5.20;4.70;;;37.50;11.10;;;;;;6302381;28;20238;-65
2022/02/13 11:44:33;;;;;;;4.70;4.40;;;37.90;11.30;;;;;;6302529;28;20744;-65
2022/02/13 11:47:40;;;;;;;4.88;4.47;;;38.70;11.00;;;;;;6302704;28;20612;-64
2022/02/13 11:50:46;;;;;;;5.05;4.57;;;39.70;10.60;;;;;;6295942;28;20701;-66
2022/02/13 11:53:51;;;;;;;4.60;4.30;;;39.20;10.70;;;;;;6300341;28;20308;-63
2022/02/13 11:57:05;;;;;;;4.95;4.55;;;38.80;10.60;;;;;;6300381;28;20245;-63
2022/02/13 12:00:12;;;;;;;4.70;4.30;;;39.80;10.80;;;;;;6299698;28;20570;-64
2022/02/13 12:03:20;;;;;;;4.40;4.10;;;40.40;10.40;;;;;;6299480;28;20234;-64
2022/02/13 12:06:33;;;;;;;4.40;4.10;;;40.80;10.30;;;;;;6299259;28;20236;-63
2022/02/13 12:09:42;;;;;;;5.10;4.60;;;40.80;10.10;;;;;;6299351;28;20222;-64
2022/02/13 12:12:46;;;;;;;5.88;4.90;;;38.90;10.40;;;;;;6301331;28;20239;-64
2022/02/13 12:15:51;;;;;;;4.82;4.40;;;37.50;11.00;;;;;;6300178;28;20611;-64
2022/02/13 12:18:55;;;;;;;5.10;4.60;;;37.90;10.80;;;;;;6299095;28;20202;-64
2022/02/13 12:22:06;;;;;;;5.18;4.68;;;37.10;11.00;;;;;;6299261;28;20235;-64
2022/02/13 12:25:12;;;;;;;4.88;4.55;;;37.90;10.90;;;;;;6299226;28;20599;-64
2022/02/13 12:28:18;;;;;;;4.70;4.40;;;38.90;10.40;;;;;;6299339;28;20238;-64
2022/02/13 12:31:23;;;;;;;4.75;4.35;;;39.30;10.30;;;;;;6303034;28;20245;-64
2022/02/13 12:34:26;;;;;;;4.65;4.35;;;40.00;10.10;;;;;;6304140;28;20227;-64
2022/02/13 12:37:39;;;;;;;4.85;4.10;;;40.30;9.90;;;;;;6303590;28;20594;-64
2022/02/13 12:40:45;;;;;;;4.85;4.45;;;38.40;10.00;;;;;;6303679;28;20222;-64
2022/02/13 12:43:48;;;;;;;4.85;4.35;;;38.50;10.20;;;;;;6303411;28;20250;-64
2022/02/13 12:46:51;;;;;;;4.65;4.28;;;37.60;10.60;;;;;;6303371;28;20263;-64
2022/02/13 12:49:55;;;;;;;17.48;16.08;;;37.00;10.80;;;;;;6303164;28;20589;-64
2022/02/13 12:52:59;;;;;;;5.40;4.90;;;36.30;10.70;;;;;;6303352;28;20230;-63
2022/02/13 12:56:05;;;;;;;4.55;4.22;;;36.40;11.00;;;;;;6303664;28;20240;-63
2022/02/13 12:59:08;;;;;;;4.85;4.38;;;37.00;10.90;;;;;;6303208;28;20222;-63
2022/02/13 13:02:19;;;;;;;4.07;3.75;;;38.20;10.70;;;;;;6302918;28;20238;-63
2022/02/13 13:05:28;;;;;;;4.80;4.40;;;37.70;10.40;;;;;;6303160;28;20231;-64
2022/02/13 13:08:42;;;;;;;4.65;4.35;;;36.90;10.80;;;;;;6302685;28;20742;-63
2022/02/13 13:11:47;;;;;;;4.60;4.20;;;35.80;11.10;;;;;;6303175;28;20234;-64
2022/02/13 13:14:55;;;;;;;5.55;4.25;;;35.40;11.40;;;;;;6302944;28;20238;-63
2022/02/13 13:17:58;;;;;;;4.97;4.63;;;35.90;11.30;;;;;;6302888;28;20674;-64
2022/02/13 13:21:22;;;;;;;5.20;4.13;;;36.40;11.00;;;;;;6303100;28;20280;-64
2022/02/13 13:24:47;;;;;;;4.28;3.97;;;35.40;11.10;;;;;;6302552;28;20254;-63
2022/02/13 13:28:07;;;;;;;3.90;3.60;;;35.70;11.40;;;;;;6302532;28;20219;-64
2022/02/13 13:31:14;;;;;;;5.18;4.68;;;35.70;11.10;;;;;;6302688;28;20234;-63
2022/02/13 13:34:20;;;;;;;4.72;4.32;;;34.60;11.30;;;;;;6302587;28;20572;-63
2022/02/13 13:37:30;;;;;;;4.30;3.90;;;34.50;11.40;;;;;;6310123;28;20288;-63
2022/02/13 13:40:35;;;;;;;4.63;4.20;;;35.40;11.20;;;;;;6306320;28;20235;-63
2022/02/13 13:43:40;;;;;;;3.90;3.60;;;35.40;11.00;;;;;;6304707;28;20245;-63
2022/02/13 13:46:43;;;;;;;3.83;3.50;;;35.50;10.60;;;;;;6303338;28;20291;-63
2022/02/13 13:49:46;;;;;;;4.35;4.05;;;35.40;10.50;;;;;;6303186;28;20239;-64
2022/02/13 13:52:50;;;;;;;4.22;3.83;;;35.80;10.70;;;;;;6302853;28;20230;-64
2022/02/13 13:55:53;;;;;;;4.50;4.10;;;35.70;10.60;;;;;;6304074;28;20235;-63
2022/02/13 13:58:57;;;;;;;4.00;3.60;;;35.10;10.80;;;;;;6299081;28;20231;-64
2022/02/13 14:02:00;;;;;;;5.18;4.75;;;34.80;11.00;;;;;;6303782;28;20299;-64
2022/02/13 14:05:04;;;;;;;5.50;5.00;;;34.00;11.60;;;;;;6303291;28;20241;-63
2022/02/13 14:08:08;;;;;;;5.00;4.60;;;31.10;13.20;;;;;;6301811;28;20226;-64
2022/02/13 14:11:11;;;;;;;5.60;5.20;;;29.30;14.30;;;;;;6301481;28;20238;-63
2022/02/13 14:14:15;;;;;;;5.97;5.37;;;26.40;16.10;;;;;;6300985;28;20245;-63
2022/02/13 14:17:18;;;;;;;5.87;5.37;;;23.60;18.10;;;;;;6301537;28;20227;-63
2022/02/13 14:20:22;;;;;;;6.73;5.50;;;22.10;19.10;;;;;;6300905;28;20245;-62
2022/02/13 14:23:25;;;;;;;5.30;4.90;;;20.90;20.20;;;;;;6301212;28;20241;-63
2022/02/13 14:26:28;;;;;;;6.20;5.60;;;18.80;21.60;;;;;;6301070;28;20227;-62
2022/02/13 14:29:34;;;;;;;4.60;4.30;;;17.50;22.70;;;;;;6301863;28;20234;-62
2022/02/13 14:32:37;;;;;;;8.27;5.23;;;16.30;24.10;;;;;;6300912;28;20687;-62
2022/02/13 14:35:40;;;;;;;5.10;4.60;;;15.60;25.40;;;;;;6301361;28;20480;-63
2022/02/13 14:38:43;;;;;;;6.10;5.50;;;15.20;26.30;;;;;;6301795;28;20916;-63
2022/02/13 14:41:46;;;;;;;6.50;5.80;;;14.70;27.00;;;;;;6300916;28;20481;-61
2022/02/13 14:44:51;;;;;;;5.63;5.23;;;13.90;27.90;;;;;;6300912;28;20476;-61
2022/02/13 14:47:55;;;;;;;6.17;5.57;;;13.40;28.80;;;;;;6301619;28;20477;-62
2022/02/13 14:50:58;;;;;;;5.93;5.50;;;12.60;29.70;;;;;;6300851;28;20480;-61
2022/02/13 14:54:01;;;;;;;5.57;5.07;;;12.30;30.30;;;;;;6300916;28;20948;-61
2022/02/13 14:57:05;;;;;;;7.10;6.37;;;12.10;30.70;;;;;;6300510;28;20475;-61
2022/02/13 15:00:11;;;;;;;7.27;5.80;;;11.70;31.60;;;;;;6300818;28;20467;-62
2022/02/13 15:03:14;;;;;;;6.53;5.93;;;11.30;32.30;;;;;;6287160;28;20504;-62
2022/02/13 15:06:18;;;;;;;6.43;5.70;;;11.10;33.00;;;;;;6301167;28;20868;-63
2022/02/13 15:09:21;;;;;;;6.47;5.83;;;10.80;33.80;;;;;;6300519;28;20913;-61
2022/02/13 15:12:24;;;;;;;6.67;5.97;;;10.30;34.70;;;;;;6300046;28;20492;-62
2022/02/13 15:15:28;;;;;;;11.20;8.10;;;10.20;35.60;;;;;;6299895;28;20469;-62
2022/02/13 15:18:32;;;;;;;11.03;8.20;;;10.10;35.40;;;;;;6299647;28;20479;-62
2022/02/13 15:21:35;;;;;;;13.90;9.83;;;10.10;35.90;;;;;;6300136;28;20473;-62
2022/02/13 15:24:38;;;;;;;8.50;7.53;;;10.20;35.90;;;;;;6299616;28;20444;-62
2022/02/13 15:27:43;;;;;;;11.80;9.23;;;10.10;36.20;;;;;;6300703;28;20454;-62
2022/02/13 15:30:48;;;;;;;9.67;6.93;;;10.10;36.40;;;;;;6299905;28;20492;-62
2022/02/13 15:33:51;;;;;;;7.33;5.70;;;10.20;36.50;;;;;;6300160;28;20463;-62
2022/02/13 15:36:56;;;;;;;7.67;6.97;;;10.20;36.60;;;;;;6299866;28;20437;-61
2022/02/13 15:39:59;;;;;;;7.67;6.97;;;10.10;36.80;;;;;;6299595;28;20774;-61
2022/02/13 15:43:02;;;;;;;8.17;6.57;;;9.90;37.80;;;;;;6299833;28;20593;-61
2022/02/13 15:46:08;;;;;;;7.13;6.50;;;9.80;38.40;;;;;;6299818;28;20972;-61
2022/02/13 15:49:11;;;;;;;10.90;7.93;;;9.70;38.70;;;;;;6282253;28;20473;-61
2022/02/13 15:52:14;;;;;;;10.10;7.00;;;9.70;39.00;;;;;;6300199;28;20476;-61
2022/02/13 15:55:18;;;;;;;7.70;6.90;;;9.50;39.70;;;;;;6303230;28;20484;-61
2022/02/13 15:58:21;;;;;;;7.80;7.00;;;9.40;40.10;;;;;;6300843;28;20472;-61
2022/02/13 16:01:25;;;;;;;9.10;7.93;;;9.40;40.70;;;;;;6300216;28;20479;-62
2022/02/13 16:04:28;;;;;;;8.70;7.90;;;9.20;41.00;;;;;;6300865;28;20529;-61
2022/02/13 16:07:31;;;;;;;11.57;8.40;;;9.20;41.50;;;;;;6304929;28;20494;-61